createdAt,value
2023-01-06T00:01:32.685Z,12.93
2023-01-06T00:03:59.653Z,11.93
2023-01-06T00:06:31.385Z,12.13
2023-01-06T00:09:02.207Z,11.67
2023-01-06T00:11:29.516Z,12.67
2023-01-06T00:13:56.714Z,12.57
2023-01-06T00:16:24.040Z,10.00
2023-01-06T00:18:55.620Z,12.23
2023-01-06T00:21:22.924Z,10.30
2023-01-06T00:23:49.926Z,14.67
2023-01-06T00:26:17.128Z,8.20
2023-01-06T00:28:44.183Z,11.53
2023-01-06T00:31:13.924Z,9.50
2023-01-06T00:33:41.497Z,9.80
2023-01-06T00:36:10.668Z,13.70
2023-01-06T00:38:38.296Z,10.13
2023-01-06T00:41:29.581Z,10.07
2023-01-06T00:43:57.951Z,7.30
2023-01-06T00:46:28.811Z,10.40
2023-01-06T00:49:04.896Z,8.77
2023-01-06T00:51:33.188Z,9.37
2023-01-06T00:54:00.601Z,11.17
2023-01-06T00:56:27.394Z,6.03
2023-01-06T00:58:54.340Z,9.63
2023-01-06T01:01:21.226Z,9.90
2023-01-06T01:03:48.094Z,7.47
2023-01-06T01:06:16.714Z,6.33
2023-01-06T01:08:44.003Z,8.17
2023-01-06T01:11:35.594Z,6.73
2023-01-06T01:14:02.726Z,6.77
2023-01-06T01:16:29.718Z,6.07
2023-01-06T01:18:57.031Z,4.97
2023-01-06T01:21:23.881Z,8.27
2023-01-06T01:23:50.680Z,8.80
2023-01-06T01:26:18.012Z,6.77
2023-01-06T01:28:44.908Z,7.37
2023-01-06T01:31:13.488Z,6.50
2023-01-06T01:33:40.337Z,7.57
2023-01-06T01:36:09.559Z,11.37
2023-01-06T01:38:36.566Z,9.53
2023-01-06T01:41:04.176Z,11.00
2023-01-06T01:44:23.949Z,9.53
2023-01-06T01:46:51.072Z,6.77
2023-01-06T01:49:24.894Z,8.93
2023-01-06T01:51:54.162Z,6.90
2023-01-06T01:54:29.691Z,6.53
2023-01-06T01:57:01.527Z,6.93
2023-01-06T01:59:32.550Z,8.73
2023-01-06T02:01:59.571Z,7.10
2023-01-06T02:04:28.777Z,8.27
2023-01-06T02:06:55.961Z,5.57
2023-01-06T02:11:58.843Z,7.03
2023-01-06T02:14:27.587Z,5.97
2023-01-06T02:17:05.682Z,5.10
2023-01-06T02:19:53.358Z,7.37
2023-01-06T02:22:39.031Z,7.97
2023-01-06T02:25:23.935Z,6.17
2023-01-06T02:28:21.827Z,7.23
2023-01-06T02:31:13.633Z,6.63
2023-01-06T02:33:59.024Z,6.03
2023-01-06T02:36:40.942Z,7.20
2023-01-06T02:39:37.019Z,7.60
2023-01-06T02:42:32.651Z,6.80
2023-01-06T02:45:14.719Z,8.77
2023-01-06T02:47:57.432Z,7.70
2023-01-06T02:50:29.743Z,9.73
2023-01-06T02:53:03.685Z,5.87
2023-01-06T02:55:44.840Z,8.03
2023-01-06T02:58:30.299Z,6.73
2023-01-06T03:01:15.318Z,6.30
2023-01-06T03:03:45.953Z,8.10
2023-01-06T03:06:17.260Z,10.17
2023-01-06T03:08:49.953Z,8.63
2023-01-06T03:11:17.094Z,6.57
2023-01-06T03:13:50.839Z,9.03
2023-01-06T03:16:18.026Z,6.20
2023-01-06T03:18:47.944Z,7.13
2023-01-06T03:21:23.253Z,10.13
2023-01-06T03:23:50.200Z,6.63
2023-01-06T03:26:17.100Z,9.10
2023-01-06T03:28:44.265Z,8.43
2023-01-06T03:31:16.681Z,7.40
2023-01-06T03:33:49.899Z,4.50
2023-01-06T03:36:40.036Z,9.57
2023-01-06T03:39:22.547Z,7.27
2023-01-06T03:42:35.224Z,7.57
2023-01-06T03:45:18.143Z,5.87
2023-01-06T03:48:09.747Z,7.10
2023-01-06T03:50:45.264Z,6.40
2023-01-06T03:53:47.047Z,4.47
2023-01-06T03:56:55.251Z,5.00
2023-01-06T03:59:26.511Z,4.30
2023-01-06T04:01:53.764Z,4.70
2023-01-06T04:04:21.237Z,5.13
2023-01-06T04:06:48.138Z,3.93
2023-01-06T04:09:15.559Z,5.87
2023-01-06T04:12:01.152Z,4.60
2023-01-06T04:14:27.930Z,4.73
2023-01-06T04:16:55.031Z,8.33
2023-01-06T04:19:21.944Z,4.30
2023-01-06T04:21:49.143Z,5.20
2023-01-06T04:24:16.038Z,3.47
2023-01-06T04:26:42.999Z,4.37
2023-01-06T04:29:09.885Z,3.90
2023-01-06T04:31:36.816Z,6.13
2023-01-06T04:34:03.791Z,4.67
2023-01-06T04:36:31.529Z,4.63
2023-01-06T04:38:58.426Z,4.70
2023-01-06T04:41:25.269Z,3.83
2023-01-06T04:43:52.117Z,7.40
2023-01-06T04:46:18.909Z,4.63
2023-01-06T04:48:45.755Z,6.37
2023-01-06T04:51:12.816Z,3.87
2023-01-06T04:53:41.947Z,3.33
2023-01-06T04:56:11.608Z,3.47
2023-01-06T04:58:38.756Z,3.27
2023-01-06T05:01:09.601Z,5.33
2023-01-06T05:03:36.922Z,2.30
2023-01-06T05:06:06.378Z,2.73
2023-01-06T05:08:33.233Z,5.57
2023-01-06T05:11:01.569Z,3.03
2023-01-06T05:13:29.834Z,4.67
2023-01-06T05:15:56.789Z,3.93
2023-01-06T05:18:24.010Z,6.83
2023-01-06T05:20:55.016Z,3.50
2023-01-06T05:23:22.563Z,5.87
2023-01-06T05:25:53.239Z,4.87
2023-01-06T05:28:20.946Z,3.53
2023-01-06T05:30:47.894Z,4.33
2023-01-06T05:33:15.040Z,4.63
2023-01-06T05:35:41.855Z,4.80
2023-01-06T05:38:08.744Z,3.87
2023-01-06T05:40:35.762Z,3.93
2023-01-06T05:43:02.669Z,3.93
2023-01-06T05:45:29.517Z,4.23
2023-01-06T05:47:57.960Z,2.90
2023-01-06T05:50:24.932Z,2.87
2023-01-06T05:52:51.776Z,2.47
2023-01-06T05:55:18.656Z,2.73
2023-01-06T05:57:45.474Z,4.73
2023-01-06T06:00:13.101Z,3.97
2023-01-06T06:02:40.144Z,3.17
2023-01-06T06:05:07.286Z,4.03
2023-01-06T06:07:34.142Z,3.83
2023-01-06T06:10:00.965Z,4.40
2023-01-06T06:12:28.030Z,4.40
2023-01-06T06:14:54.967Z,5.03
2023-01-06T06:17:21.892Z,4.37
2023-01-06T06:19:48.716Z,5.13
2023-01-06T06:22:15.531Z,4.03
2023-01-06T06:24:42.408Z,4.00
2023-01-06T06:27:09.751Z,4.43
2023-01-06T06:29:36.612Z,3.53
2023-01-06T06:32:03.668Z,3.93
2023-01-06T06:34:31.342Z,5.13
2023-01-06T06:36:58.164Z,4.00
2023-01-06T06:39:25.521Z,4.43
2023-01-06T06:41:52.378Z,4.77
2023-01-06T06:44:19.246Z,2.70
2023-01-06T06:46:46.189Z,5.50
2023-01-06T06:49:13.440Z,3.33
2023-01-06T06:51:40.309Z,2.83
2023-01-06T06:54:07.599Z,4.73
2023-01-06T06:56:34.375Z,4.97
2023-01-06T06:59:01.199Z,5.23
2023-01-06T07:01:28.097Z,5.00
2023-01-06T07:03:55.088Z,3.77
2023-01-06T07:06:25.017Z,3.90
2023-01-06T07:08:53.720Z,2.73
2023-01-06T07:11:21.020Z,3.30
2023-01-06T07:13:47.952Z,3.00
2023-01-06T07:16:14.943Z,3.97
2023-01-06T07:18:41.864Z,3.77
2023-01-06T07:21:08.751Z,5.00
2023-01-06T07:23:35.675Z,2.63
2023-01-06T07:26:03.469Z,2.93
2023-01-06T07:28:32.455Z,5.47
2023-01-06T07:30:59.798Z,3.50
2023-01-06T07:33:26.911Z,3.57
2023-01-06T07:35:54.939Z,3.07
2023-01-06T07:38:22.301Z,2.60
2023-01-06T07:40:49.373Z,2.97
2023-01-06T07:43:17.186Z,2.27
2023-01-06T07:45:47.008Z,5.33
2023-01-06T07:48:13.874Z,4.27
2023-01-06T07:50:40.769Z,3.70
2023-01-06T07:53:08.947Z,2.47
2023-01-06T07:55:36.054Z,2.87
2023-01-06T07:58:08.012Z,3.13
2023-01-06T08:00:35.928Z,3.27
2023-01-06T08:03:07.745Z,2.67
2023-01-06T08:05:43.905Z,2.20
2023-01-06T08:08:12.428Z,2.50
2023-01-06T08:10:41.281Z,3.37
2023-01-06T08:13:09.375Z,2.03
2023-01-06T08:15:37.739Z,3.00
2023-01-06T08:18:04.933Z,2.10
2023-01-06T08:20:31.830Z,3.37
2023-01-06T08:22:58.796Z,4.67
2023-01-06T08:25:25.800Z,4.33
2023-01-06T08:27:52.750Z,3.43
2023-01-06T08:30:22.011Z,5.23
2023-01-06T08:32:49.625Z,4.53
2023-01-06T08:35:16.932Z,5.33
2023-01-06T08:37:43.738Z,3.10
2023-01-06T08:40:10.974Z,4.63
2023-01-06T08:42:37.820Z,3.53
2023-01-06T08:45:05.292Z,3.10
2023-01-06T08:47:32.137Z,4.33
2023-01-06T08:49:59.108Z,2.90
2023-01-06T08:52:26.025Z,3.30
2023-01-06T08:54:52.828Z,3.80
2023-01-06T08:57:19.724Z,4.37
2023-01-06T08:59:46.523Z,2.93
2023-01-06T09:02:13.869Z,5.40
2023-01-06T09:04:40.823Z,4.67
2023-01-06T09:07:07.672Z,6.20
2023-01-06T09:09:34.635Z,3.67
2023-01-06T09:12:01.566Z,3.17
2023-01-06T09:14:29.304Z,2.87
2023-01-06T09:16:56.343Z,3.80
2023-01-06T09:19:23.162Z,3.20
2023-01-06T09:21:50.126Z,3.20
2023-01-06T09:24:17.171Z,3.03
2023-01-06T09:26:43.985Z,4.43
2023-01-06T09:29:11.577Z,4.87
2023-01-06T09:31:38.517Z,4.00
2023-01-06T09:34:05.455Z,2.90
2023-01-06T09:36:34.573Z,3.00
2023-01-06T09:39:01.451Z,3.17
2023-01-06T09:41:47.585Z,3.10
2023-01-06T09:44:47.198Z,3.33
2023-01-06T09:47:19.878Z,4.83
2023-01-06T09:49:49.855Z,3.30
2023-01-06T09:52:41.602Z,3.00
2023-01-06T09:55:26.122Z,4.13
2023-01-06T09:58:05.947Z,3.30
2023-01-06T10:00:51.325Z,2.80
2023-01-06T10:03:20.832Z,2.50
2023-01-06T10:05:53.666Z,2.80
2023-01-06T10:08:55.628Z,2.53
2023-01-06T10:11:28.129Z,2.30
2023-01-06T10:14:21.692Z,2.50
2023-01-06T10:16:57.474Z,2.47
2023-01-06T10:19:46.011Z,2.40
2023-01-06T10:22:21.632Z,3.67
2023-01-06T10:25:00.651Z,4.13
2023-01-06T10:27:36.953Z,3.00
2023-01-06T10:30:07.211Z,4.60
2023-01-06T10:32:36.672Z,2.97
2023-01-06T10:35:03.988Z,3.65
2023-01-06T10:37:39.706Z,3.10
2023-01-06T10:40:27.674Z,3.78
2023-01-06T10:43:00.465Z,3.57
2023-01-06T10:45:43.770Z,2.67
2023-01-06T10:48:24.283Z,2.40
2023-01-06T10:50:51.131Z,3.67
2023-01-06T10:53:18.311Z,3.93
2023-01-06T10:55:54.513Z,2.30
2023-01-06T10:58:28.473Z,7.10
2023-01-06T11:01:18.143Z,2.93
2023-01-06T11:03:45.949Z,4.93
2023-01-06T11:06:28.952Z,3.70
2023-01-06T11:08:56.050Z,4.43
2023-01-06T11:11:28.618Z,2.93
2023-01-06T11:14:02.852Z,2.53
2023-01-06T11:16:33.131Z,2.23
2023-01-06T11:19:08.782Z,2.47
2023-01-06T11:21:49.416Z,3.70
2023-01-06T11:24:22.838Z,2.40
2023-01-06T11:26:57.329Z,4.20
2023-01-06T11:29:33.240Z,3.03
2023-01-06T11:32:11.888Z,6.73
2023-01-06T11:34:39.237Z,2.33
2023-01-06T11:37:06.134Z,2.03
2023-01-06T11:39:36.420Z,2.80
2023-01-06T11:42:10.489Z,2.97
2023-01-06T11:44:40.275Z,2.87
2023-01-06T11:47:16.529Z,2.17
2023-01-06T11:49:59.004Z,5.53
2023-01-06T11:52:33.521Z,2.90
2023-01-06T11:55:13.354Z,3.53
2023-01-06T11:58:16.132Z,2.80
2023-01-06T12:00:47.989Z,2.23
2023-01-06T12:03:31.918Z,1.30
2023-01-06T12:06:04.769Z,1.73
2023-01-06T12:08:46.028Z,4.10
2023-01-06T12:11:34.419Z,2.07
2023-01-06T12:14:13.428Z,2.30
2023-01-06T12:17:08.120Z,3.33
2023-01-06T12:20:03.093Z,2.38
2023-01-06T12:22:38.551Z,4.73
2023-01-06T12:25:10.937Z,3.42
2023-01-06T12:28:04.688Z,4.60
2023-01-06T12:30:36.910Z,3.93
2023-01-06T12:33:27.210Z,3.30
2023-01-06T12:35:57.398Z,5.20
2023-01-06T12:38:38.336Z,3.92
2023-01-06T12:41:28.354Z,5.07
2023-01-06T14:51:21.905Z,3.77
2023-01-06T14:53:58.633Z,3.43
2023-01-06T14:56:29.166Z,5.50
2023-01-06T14:59:04.576Z,5.63
2023-01-06T15:01:35.792Z,4.30
2023-01-06T15:04:04.605Z,4.43
2023-01-06T15:06:32.262Z,6.63
2023-01-06T15:09:20.699Z,5.33
2023-01-06T15:11:47.865Z,5.30
2023-01-06T15:14:29.284Z,5.50
2023-01-06T15:16:59.185Z,4.87
2023-01-06T15:19:26.524Z,6.13
2023-01-06T15:21:54.627Z,8.20
2023-01-06T15:24:28.016Z,9.53
2023-01-06T15:26:57.042Z,5.77
2023-01-06T15:29:25.605Z,7.47
2023-01-06T15:31:54.722Z,6.13
2023-01-06T15:34:27.342Z,5.63
2023-01-06T15:36:56.251Z,7.10
2023-01-06T15:39:28.248Z,5.23
2023-01-06T15:41:56.500Z,6.80
2023-01-06T15:44:23.336Z,6.13
2023-01-06T15:46:52.326Z,9.13
2023-01-06T15:49:31.019Z,8.23
2023-01-06T15:52:08.355Z,9.90
2023-01-06T15:54:38.020Z,7.03
2023-01-06T15:57:16.567Z,4.80
2023-01-06T16:00:00.861Z,7.10
2023-01-06T16:02:30.961Z,6.67
2023-01-06T16:04:59.547Z,3.17
2023-01-06T16:07:43.239Z,6.63
2023-01-06T16:10:30.208Z,4.53
2023-01-06T16:13:18.190Z,4.57
2023-01-06T16:15:51.351Z,5.20
2023-01-06T16:18:29.520Z,6.73
2023-01-06T16:20:57.300Z,6.07
2023-01-06T16:23:32.508Z,4.53
2023-01-06T16:26:21.543Z,6.13
2023-01-06T16:28:50.944Z,10.73
2023-01-06T16:31:34.369Z,10.13
2023-01-06T16:34:20.971Z,8.33
2023-01-06T16:36:49.346Z,11.83
2023-01-06T16:44:26.401Z,11.33
2023-01-06T16:46:53.364Z,9.73
2023-01-06T16:49:21.466Z,11.10
2023-01-06T16:51:48.480Z,8.53
2023-01-06T16:54:20.114Z,10.80
2023-01-06T16:56:47.537Z,7.83
2023-01-06T16:59:17.374Z,10.03
2023-01-06T17:01:45.626Z,8.80
2023-01-06T17:04:13.895Z,8.10
2023-01-06T17:06:43.239Z,9.53
2023-01-06T17:09:21.316Z,18.60
2023-01-06T17:11:49.365Z,20.77
2023-01-06T17:14:18.466Z,26.17
2023-01-06T17:16:47.332Z,22.00
2023-01-06T17:19:29.816Z,17.40
2023-01-06T17:22:17.819Z,14.33
2023-01-06T17:24:44.822Z,13.10
2023-01-06T17:27:23.626Z,14.40
2023-01-06T17:29:51.338Z,12.80
2023-01-06T17:32:21.892Z,14.97
2023-01-06T17:34:49.449Z,15.10
2023-01-06T17:37:23.216Z,17.27
2023-01-06T17:39:50.543Z,16.70
2023-01-06T17:42:17.293Z,16.77
2023-01-06T17:44:48.824Z,13.87
2023-01-06T17:47:15.665Z,16.47
2023-01-06T17:50:00.033Z,18.07
2023-01-06T17:52:32.000Z,18.43
2023-01-06T17:55:44.248Z,20.43
2023-01-06T17:58:22.057Z,25.40
2023-01-06T18:00:49.405Z,22.20
2023-01-06T18:03:26.474Z,23.87
2023-01-06T18:06:05.767Z,24.00
2023-01-06T18:08:36.030Z,20.77
2023-01-06T18:11:11.726Z,21.37
2023-01-06T18:13:41.226Z,18.63
2023-01-06T18:16:29.769Z,17.83
2023-01-06T18:21:45.951Z,20.05
2023-01-06T18:24:36.044Z,20.20
2023-01-06T18:27:21.967Z,18.67
2023-01-06T18:29:49.340Z,19.13
2023-01-06T18:32:22.132Z,19.80
2023-01-06T18:34:54.620Z,31.07
2023-01-06T18:37:24.718Z,30.83
2023-01-06T18:39:54.434Z,28.77
2023-01-06T18:42:38.299Z,21.93
2023-01-06T18:45:07.871Z,36.03
2023-01-06T18:47:38.897Z,18.63
2023-01-06T18:50:27.043Z,23.97
2023-01-06T18:52:55.981Z,47.60
2023-01-06T18:55:27.950Z,31.67
2023-01-06T18:58:25.939Z,24.67
2023-01-06T19:00:56.030Z,20.53
2023-01-06T19:03:48.732Z,24.20
2023-01-06T19:06:15.558Z,21.50
2023-01-06T19:08:44.757Z,17.87
2023-01-06T19:11:19.918Z,17.87
2023-01-06T19:13:48.066Z,40.03
2023-01-06T19:16:30.123Z,17.63
2023-01-06T19:19:24.506Z,22.30
2023-01-06T19:21:52.440Z,26.83
2023-01-06T19:24:28.567Z,75.63
2023-01-06T19:26:58.066Z,46.80
2023-01-06T19:29:32.449Z,20.53
2023-01-06T19:32:17.133Z,23.03
2023-01-06T19:34:44.002Z,20.57
2023-01-06T19:37:16.893Z,24.23
2023-01-06T19:39:50.426Z,22.37
2023-01-06T19:42:23.668Z,30.70
2023-01-06T19:44:54.371Z,23.50
2023-01-06T19:47:25.321Z,20.43
2023-01-06T19:50:00.059Z,16.63
2023-01-06T19:52:41.287Z,15.30
2023-01-06T19:55:14.490Z,13.53
2023-01-06T19:57:44.328Z,13.57
2023-01-06T20:00:37.527Z,13.60
2023-01-06T20:03:06.661Z,13.37
2023-01-06T20:05:33.615Z,17.03
2023-01-06T20:08:00.550Z,14.77
2023-01-06T20:10:27.380Z,14.77
2023-01-06T20:12:54.259Z,14.20
2023-01-06T20:15:21.175Z,14.47
2023-01-06T20:17:48.053Z,15.27
2023-01-06T20:20:15.664Z,13.53
2023-01-06T20:22:44.687Z,13.90
2023-01-06T20:25:11.710Z,14.57
2023-01-06T20:27:38.588Z,13.60
2023-01-06T20:30:06.131Z,14.80
2023-01-06T20:32:33.058Z,14.40
2023-01-06T20:34:59.972Z,14.80
2023-01-06T20:37:26.786Z,16.50
2023-01-06T20:39:53.820Z,18.57
2023-01-06T20:42:21.460Z,18.07
2023-01-06T20:44:48.339Z,19.53
2023-01-06T20:47:15.618Z,20.53
2023-01-06T20:49:42.528Z,21.47
2023-01-06T20:52:09.742Z,22.20
2023-01-06T20:54:36.554Z,22.23
2023-01-06T20:57:03.544Z,21.63
2023-01-06T20:59:30.458Z,22.00
2023-01-06T21:01:57.663Z,21.03
2023-01-06T21:04:24.710Z,20.83
2023-01-06T21:06:51.666Z,19.77
2023-01-06T21:09:18.559Z,20.13
2023-01-06T21:11:45.613Z,23.30
2023-01-06T21:14:12.407Z,21.50
2023-01-06T21:16:39.326Z,22.33
2023-01-06T21:19:06.245Z,22.83
2023-01-06T21:21:33.213Z,23.63
2023-01-06T21:24:00.452Z,24.10
2023-01-06T21:26:27.341Z,23.83
2023-01-06T21:28:54.323Z,23.07
2023-01-06T21:31:22.033Z,21.57
2023-01-06T21:33:48.935Z,21.30
2023-01-06T21:36:15.811Z,22.03
2023-01-06T21:38:42.658Z,21.83
2023-01-06T21:41:28.476Z,22.80
2023-01-06T21:43:55.442Z,22.20
2023-01-06T21:46:22.486Z,21.30
2023-01-06T21:48:49.367Z,21.10
2023-01-06T21:51:16.406Z,20.07
2023-01-06T21:53:43.960Z,19.57
2023-01-06T21:56:11.260Z,18.57
2023-01-06T21:58:38.081Z,17.37
2023-01-06T22:01:05.406Z,17.57
2023-01-06T22:03:32.373Z,17.47
2023-01-06T22:06:01.698Z,17.00
2023-01-06T22:08:30.591Z,16.30
2023-01-06T22:10:57.741Z,15.73
2023-01-06T22:13:25.496Z,15.17
2023-01-06T22:15:52.615Z,15.93
2023-01-06T22:18:19.656Z,15.20
2023-01-06T22:20:46.740Z,16.27
2023-01-06T22:23:19.351Z,16.27
2023-01-06T22:25:46.285Z,15.37
2023-01-06T22:28:13.114Z,16.80
2023-01-06T22:30:40.016Z,15.10
2023-01-06T22:33:06.948Z,14.93
2023-01-06T22:35:33.876Z,15.40
2023-01-06T22:38:00.949Z,15.17
2023-01-06T22:40:28.392Z,14.87
2023-01-06T22:42:56.788Z,13.63
2023-01-06T22:45:23.889Z,14.60
2023-01-06T22:47:50.750Z,14.30
2023-01-06T22:50:18.074Z,14.30
2023-01-06T22:52:44.860Z,14.70
2023-01-06T22:55:11.737Z,15.17
2023-01-06T22:57:38.655Z,16.20
2023-01-06T23:00:12.284Z,15.87
2023-01-06T23:02:39.315Z,17.63
2023-01-06T23:05:06.566Z,16.40
2023-01-06T23:07:42.552Z,16.50
2023-01-06T23:10:11.716Z,17.23
2023-01-06T23:12:40.392Z,16.67
2023-01-06T23:15:08.703Z,17.80
2023-01-06T23:17:38.398Z,16.93
2023-01-06T23:20:06.019Z,17.73
2023-01-06T23:22:33.053Z,17.80
2023-01-06T23:24:59.906Z,21.65
2023-01-06T23:27:26.814Z,19.13
2023-01-06T23:29:54.040Z,20.60
2023-01-06T23:32:20.959Z,19.50
2023-01-06T23:34:47.883Z,20.70
2023-01-06T23:37:14.768Z,20.03
2023-01-06T23:39:41.553Z,20.83
2023-01-06T23:42:08.651Z,19.67
2023-01-06T23:44:35.522Z,21.33
2023-01-06T23:47:02.426Z,20.43
2023-01-06T23:49:29.262Z,21.40
2023-01-06T23:51:56.071Z,20.80
2023-01-06T23:54:23.028Z,22.00
2023-01-06T23:56:49.794Z,20.87
2023-01-06T23:59:16.653Z,20.23
